sensor_id;sensor_type;location;lat;lon;timestamp;temperature;humidity
69823;SHT31;57119;52.516;13.508;2023-08-31T00:01:35;14.91;99.99
69823;SHT31;57119;52.516;13.508;2023-08-31T00:04:00;14.92;99.99
69823;SHT31;57119;52.516;13.508;2023-08-31T00:06:26;15.03;99.99
69823;SHT31;57119;52.516;13.508;2023-08-31T00:08:51;15.08;99.99
69823;SHT31;57119;52.516;13.508;2023-08-31T00:11:17;15.09;99.99
69823;SHT31;57119;52.516;13.508;2023-08-31T00:13:42;15.13;99.99
69823;SHT31;57119;52.516;13.508;2023-08-31T00:16:07;15.10;99.99
69823;SHT31;57119;52.516;13.508;2023-08-31T00:18:35;15.16;99.99
69823;SHT31;57119;52.516;13.508;2023-08-31T00:21:01;15.20;99.99
69823;SHT31;57119;52.516;13.508;2023-08-31T00:23:27;15.18;99.99
69823;SHT31;57119;52.516;13.508;2023-08-31T00:25:53;15.13;99.99
69823;SHT31;57119;52.516;13.508;2023-08-31T00:28:19;15.12;99.99
69823;SHT31;57119;52.516;13.508;2023-08-31T00:30:45;15.18;99.99
69823;SHT31;57119;52.516;13.508;2023-08-31T00:33:12;15.13;99.99
69823;SHT31;57119;52.516;13.508;2023-08-31T00:35:37;15.08;99.99
69823;SHT31;57119;52.516;13.508;2023-08-31T00:38:03;15.05;99.99
69823;SHT31;57119;52.516;13.508;2023-08-31T00:40:30;14.98;99.99
69823;SHT31;57119;52.516;13.508;2023-08-31T00:42:56;14.93;99.99
69823;SHT31;57119;52.516;13.508;2023-08-31T00:45:22;14.85;99.99
69823;SHT31;57119;52.516;13.508;2023-08-31T00:47:48;14.85;99.99
69823;SHT31;57119;52.516;13.508;2023-08-31T00:50:15;14.85;99.99
69823;SHT31;57119;52.516;13.508;2023-08-31T00:52:41;14.84;99.99
69823;SHT31;57119;52.516;13.508;2023-08-31T00:55:10;14.88;99.99
69823;SHT31;57119;52.516;13.508;2023-08-31T00:57:35;14.89;99.99
69823;SHT31;57119;52.516;13.508;2023-08-31T01:00:01;14.91;99.99
69823;SHT31;57119;52.516;13.508;2023-08-31T01:02:39;14.91;99.99
69823;SHT31;57119;52.516;13.508;2023-08-31T01:10:37;14.93;99.99
69823;SHT31;57119;52.516;13.508;2023-08-31T01:13:12;14.89;99.99
69823;SHT31;57119;52.516;13.508;2023-08-31T01:15:41;14.85;99.99
69823;SHT31;57119;52.516;13.508;2023-08-31T01:18:11;14.88;99.99
69823;SHT31;57119;52.516;13.508;2023-08-31T01:26:13;14.82;99.99
69823;SHT31;57119;52.516;13.508;2023-08-31T01:28:39;14.92;99.99
69823;SHT31;57119;52.516;13.508;2023-08-31T01:31:04;14.96;99.99
69823;SHT31;57119;52.516;13.508;2023-08-31T01:33:32;15.08;99.99
69823;SHT31;57119;52.516;13.508;2023-08-31T01:35:58;15.13;99.99
69823;SHT31;57119;52.516;13.508;2023-08-31T01:38:28;15.19;99.99
69823;SHT31;57119;52.516;13.508;2023-08-31T01:41:08;15.25;99.99
69823;SHT31;57119;52.516;13.508;2023-08-31T01:43:36;15.25;99.99
69823;SHT31;57119;52.516;13.508;2023-08-31T01:46:01;15.26;99.99
69823;SHT31;57119;52.516;13.508;2023-08-31T01:48:28;15.26;99.99
69823;SHT31;57119;52.516;13.508;2023-08-31T01:50:53;15.25;99.99
69823;SHT31;57119;52.516;13.508;2023-08-31T01:53:18;15.25;99.99
69823;SHT31;57119;52.516;13.508;2023-08-31T01:55:44;15.22;99.99
69823;SHT31;57119;52.516;13.508;2023-08-31T01:58:09;15.18;99.99
69823;SHT31;57119;52.516;13.508;2023-08-31T02:00:34;15.16;99.99
69823;SHT31;57119;52.516;13.508;2023-08-31T02:03:01;15.08;99.99
69823;SHT31;57119;52.516;13.508;2023-08-31T02:05:26;15.00;99.99
69823;SHT31;57119;52.516;13.508;2023-08-31T02:07:52;15.00;99.99
69823;SHT31;57119;52.516;13.508;2023-08-31T02:10:17;14.93;99.99
69823;SHT31;57119;52.516;13.508;2023-08-31T02:12:43;14.91;99.99
69823;SHT31;57119;52.516;13.508;2023-08-31T02:15:08;14.88;99.99
69823;SHT31;57119;52.516;13.508;2023-08-31T02:17:34;14.82;99.99
69823;SHT31;57119;52.516;13.508;2023-08-31T02:20:00;14.77;99.99
69823;SHT31;57119;52.516;13.508;2023-08-31T02:22:26;14.74;99.99
69823;SHT31;57119;52.516;13.508;2023-08-31T02:24:52;14.74;99.99
69823;SHT31;57119;52.516;13.508;2023-08-31T02:27:17;14.68;99.99
69823;SHT31;57119;52.516;13.508;2023-08-31T02:29:43;14.64;99.99
69823;SHT31;57119;52.516;13.508;2023-08-31T02:32:08;14.64;99.99
69823;SHT31;57119;52.516;13.508;2023-08-31T02:34:34;14.60;99.99
69823;SHT31;57119;52.516;13.508;2023-08-31T02:36:59;14.52;99.99
69823;SHT31;57119;52.516;13.508;2023-08-31T02:39:25;14.44;99.99
69823;SHT31;57119;52.516;13.508;2023-08-31T02:41:50;14.42;99.99
69823;SHT31;57119;52.516;13.508;2023-08-31T02:44:15;14.37;99.99
69823;SHT31;57119;52.516;13.508;2023-08-31T02:46:41;14.31;99.99
69823;SHT31;57119;52.516;13.508;2023-08-31T02:49:06;14.31;99.99
69823;SHT31;57119;52.516;13.508;2023-08-31T02:51:31;14.33;99.99
69823;SHT31;57119;52.516;13.508;2023-08-31T02:53:57;14.27;99.99
69823;SHT31;57119;52.516;13.508;2023-08-31T02:56:22;14.24;99.99
69823;SHT31;57119;52.516;13.508;2023-08-31T02:58:48;14.17;99.99
69823;SHT31;57119;52.516;13.508;2023-08-31T03:01:13;14.14;99.99
69823;SHT31;57119;52.516;13.508;2023-08-31T03:03:40;14.12;99.99
69823;SHT31;57119;52.516;13.508;2023-08-31T03:06:06;14.09;99.99
69823;SHT31;57119;52.516;13.508;2023-08-31T03:08:33;14.12;99.99
69823;SHT31;57119;52.516;13.508;2023-08-31T03:10:58;14.10;99.99
69823;SHT31;57119;52.516;13.508;2023-08-31T03:13:24;14.08;99.99
69823;SHT31;57119;52.516;13.508;2023-08-31T03:15:50;14.05;99.99
69823;SHT31;57119;52.516;13.508;2023-08-31T03:18:15;14.02;99.99
69823;SHT31;57119;52.516;13.508;2023-08-31T03:20:41;14.00;99.99
69823;SHT31;57119;52.516;13.508;2023-08-31T03:23:06;13.98;99.99
69823;SHT31;57119;52.516;13.508;2023-08-31T03:25:31;13.96;99.99
69823;SHT31;57119;52.516;13.508;2023-08-31T03:27:57;13.93;99.99
69823;SHT31;57119;52.516;13.508;2023-08-31T03:30:22;13.92;99.99
69823;SHT31;57119;52.516;13.508;2023-08-31T03:32:47;13.90;99.99
69823;SHT31;57119;52.516;13.508;2023-08-31T03:35:13;13.89;99.99
69823;SHT31;57119;52.516;13.508;2023-08-31T03:37:38;13.92;99.99
69823;SHT31;57119;52.516;13.508;2023-08-31T03:40:04;13.92;99.99
69823;SHT31;57119;52.516;13.508;2023-08-31T03:42:31;13.89;99.99
69823;SHT31;57119;52.516;13.508;2023-08-31T03:44:56;13.90;99.99
69823;SHT31;57119;52.516;13.508;2023-08-31T03:47:22;13.95;99.99
69823;SHT31;57119;52.516;13.508;2023-08-31T03:49:47;13.96;99.99
69823;SHT31;57119;52.516;13.508;2023-08-31T03:52:12;13.95;99.99
69823;SHT31;57119;52.516;13.508;2023-08-31T03:54:38;14.02;99.99
69823;SHT31;57119;52.516;13.508;2023-08-31T03:57:03;14.03;99.99
69823;SHT31;57119;52.516;13.508;2023-08-31T03:59:29;13.99;99.99
69823;SHT31;57119;52.516;13.508;2023-08-31T04:01:54;13.99;99.99
69823;SHT31;57119;52.516;13.508;2023-08-31T04:04:19;14.05;99.99
69823;SHT31;57119;52.516;13.508;2023-08-31T04:06:45;14.00;99.99
69823;SHT31;57119;52.516;13.508;2023-08-31T04:09:10;14.06;99.99
69823;SHT31;57119;52.516;13.508;2023-08-31T04:11:35;14.05;99.99
69823;SHT31;57119;52.516;13.508;2023-08-31T04:14:01;14.08;99.99
69823;SHT31;57119;52.516;13.508;2023-08-31T04:16:27;14.09;99.99
69823;SHT31;57119;52.516;13.508;2023-08-31T04:18:54;14.10;99.99
69823;SHT31;57119;52.516;13.508;2023-08-31T04:21:20;14.09;99.99
69823;SHT31;57119;52.516;13.508;2023-08-31T04:23:45;14.08;99.99
69823;SHT31;57119;52.516;13.508;2023-08-31T04:26:14;14.03;99.99
69823;SHT31;57119;52.516;13.508;2023-08-31T04:28:40;14.00;99.99
69823;SHT31;57119;52.516;13.508;2023-08-31T04:31:09;13.98;99.99
69823;SHT31;57119;52.516;13.508;2023-08-31T04:33:35;14.00;99.99
69823;SHT31;57119;52.516;13.508;2023-08-31T04:36:00;13.96;99.99
69823;SHT31;57119;52.516;13.508;2023-08-31T04:38:26;14.02;99.99
69823;SHT31;57119;52.516;13.508;2023-08-31T04:40:51;14.00;99.99
69823;SHT31;57119;52.516;13.508;2023-08-31T04:43:17;14.05;99.99
69823;SHT31;57119;52.516;13.508;2023-08-31T04:45:42;13.99;99.99
69823;SHT31;57119;52.516;13.508;2023-08-31T04:48:08;14.08;99.99
69823;SHT31;57119;52.516;13.508;2023-08-31T04:50:33;14.10;99.99
69823;SHT31;57119;52.516;13.508;2023-08-31T04:52:58;14.09;99.99
69823;SHT31;57119;52.516;13.508;2023-08-31T04:55:24;14.09;99.99
69823;SHT31;57119;52.516;13.508;2023-08-31T04:57:50;14.13;99.99
69823;SHT31;57119;52.516;13.508;2023-08-31T05:00:16;14.17;99.99
69823;SHT31;57119;52.516;13.508;2023-08-31T05:02:41;14.21;99.99
69823;SHT31;57119;52.516;13.508;2023-08-31T05:05:08;14.30;99.99
69823;SHT31;57119;52.516;13.508;2023-08-31T05:07:34;14.34;99.99
69823;SHT31;57119;52.516;13.508;2023-08-31T05:09:59;14.34;99.99
69823;SHT31;57119;52.516;13.508;2023-08-31T05:12:24;14.36;99.99
69823;SHT31;57119;52.516;13.508;2023-08-31T05:14:50;14.33;99.99
69823;SHT31;57119;52.516;13.508;2023-08-31T05:17:15;14.31;99.99
69823;SHT31;57119;52.516;13.508;2023-08-31T05:19:40;14.37;99.99
69823;SHT31;57119;52.516;13.508;2023-08-31T05:22:06;14.40;99.99
69823;SHT31;57119;52.516;13.508;2023-08-31T05:24:31;14.51;99.99
69823;SHT31;57119;52.516;13.508;2023-08-31T05:26:56;14.54;99.99
69823;SHT31;57119;52.516;13.508;2023-08-31T05:29:22;14.57;99.99
69823;SHT31;57119;52.516;13.508;2023-08-31T05:31:47;14.54;99.99
69823;SHT31;57119;52.516;13.508;2023-08-31T05:34:16;14.52;99.99
69823;SHT31;57119;52.516;13.508;2023-08-31T05:36:43;14.56;99.99
69823;SHT31;57119;52.516;13.508;2023-08-31T05:39:08;14.52;99.99
69823;SHT31;57119;52.516;13.508;2023-08-31T05:41:34;14.47;99.99
69823;SHT31;57119;52.516;13.508;2023-08-31T05:44:00;14.40;99.99
69823;SHT31;57119;52.516;13.508;2023-08-31T05:46:25;14.41;99.99
69823;SHT31;57119;52.516;13.508;2023-08-31T05:48:50;14.42;99.99
69823;SHT31;57119;52.516;13.508;2023-08-31T05:51:17;14.42;99.99
69823;SHT31;57119;52.516;13.508;2023-08-31T05:53:43;14.40;99.99
69823;SHT31;57119;52.516;13.508;2023-08-31T05:56:08;14.40;99.99
69823;SHT31;57119;52.516;13.508;2023-08-31T05:58:35;14.42;99.99
69823;SHT31;57119;52.516;13.508;2023-08-31T06:01:01;14.36;99.99
69823;SHT31;57119;52.516;13.508;2023-08-31T06:03:27;14.40;99.99
69823;SHT31;57119;52.516;13.508;2023-08-31T06:05:54;14.41;99.99
69823;SHT31;57119;52.516;13.508;2023-08-31T06:08:20;14.42;99.99
69823;SHT31;57119;52.516;13.508;2023-08-31T06:10:45;14.56;99.99
69823;SHT31;57119;52.516;13.508;2023-08-31T06:13:11;14.63;99.99
69823;SHT31;57119;52.516;13.508;2023-08-31T06:15:36;14.75;99.99
69823;SHT31;57119;52.516;13.508;2023-08-31T06:18:02;14.81;99.99
69823;SHT31;57119;52.516;13.508;2023-08-31T06:20:28;14.78;99.99
69823;SHT31;57119;52.516;13.508;2023-08-31T06:22:53;14.77;99.99
69823;SHT31;57119;52.516;13.508;2023-08-31T06:25:18;14.77;99.99
69823;SHT31;57119;52.516;13.508;2023-08-31T06:27:44;14.79;99.99
69823;SHT31;57119;52.516;13.508;2023-08-31T06:30:10;14.82;99.99
69823;SHT31;57119;52.516;13.508;2023-08-31T06:32:44;14.84;99.99
69823;SHT31;57119;52.516;13.508;2023-08-31T06:35:11;14.84;99.99
69823;SHT31;57119;52.516;13.508;2023-08-31T06:37:37;14.84;99.99
69823;SHT31;57119;52.516;13.508;2023-08-31T06:40:03;14.79;99.99
69823;SHT31;57119;52.516;13.508;2023-08-31T06:42:28;14.81;99.99
69823;SHT31;57119;52.516;13.508;2023-08-31T06:44:53;14.79;99.99
69823;SHT31;57119;52.516;13.508;2023-08-31T06:47:22;14.89;99.99
69823;SHT31;57119;52.516;13.508;2023-08-31T06:49:47;15.02;99.99
69823;SHT31;57119;52.516;13.508;2023-08-31T06:52:12;15.15;99.99
69823;SHT31;57119;52.516;13.508;2023-08-31T06:54:38;15.32;99.99
69823;SHT31;57119;52.516;13.508;2023-08-31T06:57:03;15.29;99.14
69823;SHT31;57119;52.516;13.508;2023-08-31T06:59:29;15.43;99.83
69823;SHT31;57119;52.516;13.508;2023-08-31T07:01:54;15.51;99.20
69823;SHT31;57119;52.516;13.508;2023-08-31T07:04:19;15.50;99.02
69823;SHT31;57119;52.516;13.508;2023-08-31T07:06:45;15.37;99.54
69823;SHT31;57119;52.516;13.508;2023-08-31T07:09:10;15.40;99.52
69823;SHT31;57119;52.516;13.508;2023-08-31T07:11:36;15.35;98.71
69823;SHT31;57119;52.516;13.508;2023-08-31T07:14:01;15.29;99.09
69823;SHT31;57119;52.516;13.508;2023-08-31T07:16:26;15.32;99.39
69823;SHT31;57119;52.516;13.508;2023-08-31T07:18:52;15.35;99.63
69823;SHT31;57119;52.516;13.508;2023-08-31T07:21:17;15.33;99.04
69823;SHT31;57119;52.516;13.508;2023-08-31T07:23:43;15.30;99.16
69823;SHT31;57119;52.516;13.508;2023-08-31T07:26:08;15.35;98.88
69823;SHT31;57119;52.516;13.508;2023-08-31T07:28:34;15.37;98.44
69823;SHT31;57119;52.516;13.508;2023-08-31T07:31:04;15.33;98.10
69823;SHT31;57119;52.516;13.508;2023-08-31T07:33:31;15.30;97.74
69823;SHT31;57119;52.516;13.508;2023-08-31T07:35:58;15.36;97.84
69823;SHT31;57119;52.516;13.508;2023-08-31T07:38:24;15.40;97.44
69823;SHT31;57119;52.516;13.508;2023-08-31T07:40:49;15.42;97.59
69823;SHT31;57119;52.516;13.508;2023-08-31T07:43:15;15.44;97.35
69823;SHT31;57119;52.516;13.508;2023-08-31T07:45:40;15.64;97.66
69823;SHT31;57119;52.516;13.508;2023-08-31T07:48:05;15.70;96.19
69823;SHT31;57119;52.516;13.508;2023-08-31T07:50:32;15.60;95.55
69823;SHT31;57119;52.516;13.508;2023-08-31T07:52:57;15.65;95.99
69823;SHT31;57119;52.516;13.508;2023-08-31T07:55:23;15.80;95.92
69823;SHT31;57119;52.516;13.508;2023-08-31T07:57:48;15.92;96.05
69823;SHT31;57119;52.516;13.508;2023-08-31T08:00:14;15.91;96.05
69823;SHT31;57119;52.516;13.508;2023-08-31T08:02:44;16.00;95.76
69823;SHT31;57119;52.516;13.508;2023-08-31T08:05:09;16.01;95.11
69823;SHT31;57119;52.516;13.508;2023-08-31T08:07:35;16.46;93.57
69823;SHT31;57119;52.516;13.508;2023-08-31T08:10:08;16.76;92.98
69823;SHT31;57119;52.516;13.508;2023-08-31T08:12:41;17.31;90.91
69823;SHT31;57119;52.516;13.508;2023-08-31T08:15:11;17.31;90.04
69823;SHT31;57119;52.516;13.508;2023-08-31T08:17:36;17.18;89.84
69823;SHT31;57119;52.516;13.508;2023-08-31T08:20:02;17.04;89.95
69823;SHT31;57119;52.516;13.508;2023-08-31T08:22:29;17.00;90.22
69823;SHT31;57119;52.516;13.508;2023-08-31T08:24:54;16.73;89.20
69823;SHT31;57119;52.516;13.508;2023-08-31T08:27:19;17.03;88.45
69823;SHT31;57119;52.516;13.508;2023-08-31T08:29:45;18.15;86.04
69823;SHT31;57119;52.516;13.508;2023-08-31T08:32:12;19.44;83.48
69823;SHT31;57119;52.516;13.508;2023-08-31T08:34:37;19.67;81.39
69823;SHT31;57119;52.516;13.508;2023-08-31T08:37:02;20.23;79.79
69823;SHT31;57119;52.516;13.508;2023-08-31T08:39:31;20.00;81.25
69823;SHT31;57119;52.516;13.508;2023-08-31T08:41:58;19.10;82.01
69823;SHT31;57119;52.516;13.508;2023-08-31T08:44:25;19.47;82.38
69823;SHT31;57119;52.516;13.508;2023-08-31T08:46:51;19.89;80.57
69823;SHT31;57119;52.516;13.508;2023-08-31T08:49:18;18.81;82.90
69823;SHT31;57119;52.516;13.508;2023-08-31T08:51:44;20.15;81.35
69823;SHT31;57119;52.516;13.508;2023-08-31T08:54:12;20.51;80.42
69823;SHT31;57119;52.516;13.508;2023-08-31T08:56:37;22.08;77.55
69823;SHT31;57119;52.516;13.508;2023-08-31T08:59:03;21.02;78.47
69823;SHT31;57119;52.516;13.508;2023-08-31T09:01:28;20.46;78.52
69823;SHT31;57119;52.516;13.508;2023-08-31T09:03:54;19.92;79.45
69823;SHT31;57119;52.516;13.508;2023-08-31T09:06:19;18.91;80.80
69823;SHT31;57119;52.516;13.508;2023-08-31T09:08:54;18.40;82.57
69823;SHT31;57119;52.516;13.508;2023-08-31T09:11:21;18.31;83.46
69823;SHT31;57119;52.516;13.508;2023-08-31T09:13:50;18.41;83.12
69823;SHT31;57119;52.516;13.508;2023-08-31T09:16:26;18.33;82.37
69823;SHT31;57119;52.516;13.508;2023-08-31T09:18:53;18.77;81.43
69823;SHT31;57119;52.516;13.508;2023-08-31T09:21:19;18.15;80.71
69823;SHT31;57119;52.516;13.508;2023-08-31T09:23:55;19.12;80.69
69823;SHT31;57119;52.516;13.508;2023-08-31T09:26:22;21.52;75.52
69823;SHT31;57119;52.516;13.508;2023-08-31T09:28:49;22.51;72.21
69823;SHT31;57119;52.516;13.508;2023-08-31T09:31:14;22.38;72.19
69823;SHT31;57119;52.516;13.508;2023-08-31T09:33:52;23.35;70.16
69823;SHT31;57119;52.516;13.508;2023-08-31T09:36:18;21.69;72.49
69823;SHT31;57119;52.516;13.508;2023-08-31T09:38:45;21.31;74.19
69823;SHT31;57119;52.516;13.508;2023-08-31T09:41:10;20.36;75.15
69823;SHT31;57119;52.516;13.508;2023-08-31T09:43:36;19.51;77.15
69823;SHT31;57119;52.516;13.508;2023-08-31T09:46:03;19.04;78.68
69823;SHT31;57119;52.516;13.508;2023-08-31T09:48:29;18.83;79.33
69823;SHT31;57119;52.516;13.508;2023-08-31T09:50:55;19.74;78.17
69823;SHT31;57119;52.516;13.508;2023-08-31T09:53:21;21.74;73.88
69823;SHT31;57119;52.516;13.508;2023-08-31T09:55:48;22.96;70.81
69823;SHT31;57119;52.516;13.508;2023-08-31T09:58:18;22.34;71.31
69823;SHT31;57119;52.516;13.508;2023-08-31T10:00:46;21.28;74.09
69823;SHT31;57119;52.516;13.508;2023-08-31T10:03:12;21.28;74.27
69823;SHT31;57119;52.516;13.508;2023-08-31T10:05:43;21.36;74.20
69823;SHT31;57119;52.516;13.508;2023-08-31T10:08:08;22.24;71.24
69823;SHT31;57119;52.516;13.508;2023-08-31T10:10:34;22.72;68.88
69823;SHT31;57119;52.516;13.508;2023-08-31T10:13:01;21.25;70.88
69823;SHT31;57119;52.516;13.508;2023-08-31T10:15:32;23.88;65.91
69823;SHT31;57119;52.516;13.508;2023-08-31T10:18:00;26.28;63.42
69823;SHT31;57119;52.516;13.508;2023-08-31T10:20:33;24.75;62.68
69823;SHT31;57119;52.516;13.508;2023-08-31T10:23:03;24.60;62.49
69823;SHT31;57119;52.516;13.508;2023-08-31T10:28:24;25.22;61.55
69823;SHT31;57119;52.516;13.508;2023-08-31T10:31:15;25.83;60.09
69823;SHT31;57119;52.516;13.508;2023-08-31T10:41:35;22.89;65.72
69823;SHT31;57119;52.516;13.508;2023-08-31T10:44:00;21.45;68.19
69823;SHT31;57119;52.516;13.508;2023-08-31T10:46:33;20.19;70.61
69823;SHT31;57119;52.516;13.508;2023-08-31T10:51:38;16.36;84.31
69823;SHT31;57119;52.516;13.508;2023-08-31T10:54:11;15.46;90.39
69823;SHT31;57119;52.516;13.508;2023-08-31T10:59:24;14.88;93.36
69823;SHT31;57119;52.516;13.508;2023-08-31T11:01:53;14.78;94.28
69823;SHT31;57119;52.516;13.508;2023-08-31T11:04:23;14.91;92.25
69823;SHT31;57119;52.516;13.508;2023-08-31T11:06:49;14.98;92.75
69823;SHT31;57119;52.516;13.508;2023-08-31T11:09:21;15.08;91.07
69823;SHT31;57119;52.516;13.508;2023-08-31T11:11:46;15.26;92.28
69823;SHT31;57119;52.516;13.508;2023-08-31T11:14:13;15.42;90.76
69823;SHT31;57119;52.516;13.508;2023-08-31T11:16:38;15.73;90.93
69823;SHT31;57119;52.516;13.508;2023-08-31T11:19:04;16.08;90.64
69823;SHT31;57119;52.516;13.508;2023-08-31T11:21:30;16.52;90.62
69823;SHT31;57119;52.516;13.508;2023-08-31T11:23:57;17.11;90.10
69823;SHT31;57119;52.516;13.508;2023-08-31T11:26:26;18.33;85.78
69823;SHT31;57119;52.516;13.508;2023-08-31T11:28:52;19.95;82.51
69823;SHT31;57119;52.516;13.508;2023-08-31T11:31:24;21.86;77.97
69823;SHT31;57119;52.516;13.508;2023-08-31T11:33:49;23.07;74.86
69823;SHT31;57119;52.516;13.508;2023-08-31T11:36:15;24.92;69.07
69823;SHT31;57119;52.516;13.508;2023-08-31T11:38:43;25.53;66.58
69823;SHT31;57119;52.516;13.508;2023-08-31T11:41:09;26.97;67.13
69823;SHT31;57119;52.516;13.508;2023-08-31T11:43:34;25.81;65.80
69823;SHT31;57119;52.516;13.508;2023-08-31T11:46:00;27.07;64.91
69823;SHT31;57119;52.516;13.508;2023-08-31T11:48:26;27.81;64.12
69823;SHT31;57119;52.516;13.508;2023-08-31T11:50:51;29.91;59.61
69823;SHT31;57119;52.516;13.508;2023-08-31T11:53:18;29.29;57.67
69823;SHT31;57119;52.516;13.508;2023-08-31T11:55:53;28.52;59.19
69823;SHT31;57119;52.516;13.508;2023-08-31T11:58:19;28.94;58.48
69823;SHT31;57119;52.516;13.508;2023-08-31T12:00:45;25.37;63.17
69823;SHT31;57119;52.516;13.508;2023-08-31T12:03:12;25.83;64.07
69823;SHT31;57119;52.516;13.508;2023-08-31T12:05:48;23.71;69.29
69823;SHT31;57119;52.516;13.508;2023-08-31T12:08:16;22.92;68.12
69823;SHT31;57119;52.516;13.508;2023-08-31T12:10:48;21.74;73.09
69823;SHT31;57119;52.516;13.508;2023-08-31T12:13:14;20.61;78.46
69823;SHT31;57119;52.516;13.508;2023-08-31T12:15:39;19.33;80.82
69823;SHT31;57119;52.516;13.508;2023-08-31T12:18:11;18.21;84.25
69823;SHT31;57119;52.516;13.508;2023-08-31T12:20:45;16.98;95.79
69823;SHT31;57119;52.516;13.508;2023-08-31T12:23:10;16.29;97.83
69823;SHT31;57119;52.516;13.508;2023-08-31T12:25:35;17.42;96.89
69823;SHT31;57119;52.516;13.508;2023-08-31T12:28:01;17.52;96.92
69823;SHT31;57119;52.516;13.508;2023-08-31T12:30:27;17.43;88.86
69823;SHT31;57119;52.516;13.508;2023-08-31T12:32:53;18.56;95.61
69823;SHT31;57119;52.516;13.508;2023-08-31T12:35:18;20.80;91.94
69823;SHT31;57119;52.516;13.508;2023-08-31T12:37:44;21.90;82.64
69823;SHT31;57119;52.516;13.508;2023-08-31T12:40:09;21.15;82.18
69823;SHT31;57119;52.516;13.508;2023-08-31T12:42:35;19.43;77.53
69823;SHT31;57119;52.516;13.508;2023-08-31T12:45:01;19.46;84.46
69823;SHT31;57119;52.516;13.508;2023-08-31T12:47:26;18.85;86.00
69823;SHT31;57119;52.516;13.508;2023-08-31T12:49:52;17.82;82.58
69823;SHT31;57119;52.516;13.508;2023-08-31T12:52:17;17.62;93.11
69823;SHT31;57119;52.516;13.508;2023-08-31T12:54:42;17.87;91.09
69823;SHT31;57119;52.516;13.508;2023-08-31T12:57:08;17.97;86.75
69823;SHT31;57119;52.516;13.508;2023-08-31T12:59:33;17.82;90.60
69823;SHT31;57119;52.516;13.508;2023-08-31T13:01:58;18.68;91.44
69823;SHT31;57119;52.516;13.508;2023-08-31T13:04:24;19.03;80.61
69823;SHT31;57119;52.516;13.508;2023-08-31T13:06:49;21.74;77.22
69823;SHT31;57119;52.516;13.508;2023-08-31T13:09:15;23.95;74.79
69823;SHT31;57119;52.516;13.508;2023-08-31T13:11:41;24.82;73.19
69823;SHT31;57119;52.516;13.508;2023-08-31T13:14:06;25.16;68.93
69823;SHT31;57119;52.516;13.508;2023-08-31T13:16:32;25.23;68.18
69823;SHT31;57119;52.516;13.508;2023-08-31T13:18:58;23.69;71.76
69823;SHT31;57119;52.516;13.508;2023-08-31T13:21:23;24.61;67.54
69823;SHT31;57119;52.516;13.508;2023-08-31T13:23:49;26.04;66.63
69823;SHT31;57119;52.516;13.508;2023-08-31T13:26:14;25.90;65.25
69823;SHT31;57119;52.516;13.508;2023-08-31T13:28:39;26.69;64.14
69823;SHT31;57119;52.516;13.508;2023-08-31T13:31:06;24.82;67.90
69823;SHT31;57119;52.516;13.508;2023-08-31T13:33:31;25.39;66.71
69823;SHT31;57119;52.516;13.508;2023-08-31T13:35:58;26.05;65.69
69823;SHT31;57119;52.516;13.508;2023-08-31T13:38:24;23.54;69.35
69823;SHT31;57119;52.516;13.508;2023-08-31T13:40:54;21.32;73.19
69823;SHT31;57119;52.516;13.508;2023-08-31T13:43:20;20.02;76.13
69823;SHT31;57119;52.516;13.508;2023-08-31T13:45:45;19.41;78.16
69823;SHT31;57119;52.516;13.508;2023-08-31T13:48:11;19.20;77.51
69823;SHT31;57119;52.516;13.508;2023-08-31T13:50:37;19.06;77.72
69823;SHT31;57119;52.516;13.508;2023-08-31T13:53:02;19.20;77.95
69823;SHT31;57119;52.516;13.508;2023-08-31T13:55:28;20.81;74.90
69823;SHT31;57119;52.516;13.508;2023-08-31T13:57:54;21.52;72.81
69823;SHT31;57119;52.516;13.508;2023-08-31T14:00:19;21.50;73.03
69823;SHT31;57119;52.516;13.508;2023-08-31T14:02:45;20.50;73.58
69823;SHT31;57119;52.516;13.508;2023-08-31T14:05:10;19.86;75.70
69823;SHT31;57119;52.516;13.508;2023-08-31T14:07:36;19.62;75.50
69823;SHT31;57119;52.516;13.508;2023-08-31T14:10:03;18.86;77.45
69823;SHT31;57119;52.516;13.508;2023-08-31T14:12:32;18.44;78.60
69823;SHT31;57119;52.516;13.508;2023-08-31T14:14:58;18.56;76.85
69823;SHT31;57119;52.516;13.508;2023-08-31T14:17:23;19.41;76.83
69823;SHT31;57119;52.516;13.508;2023-08-31T14:19:49;20.41;73.80
69823;SHT31;57119;52.516;13.508;2023-08-31T14:22:14;20.05;75.11
69823;SHT31;57119;52.516;13.508;2023-08-31T14:24:40;20.10;74.21
69823;SHT31;57119;52.516;13.508;2023-08-31T14:27:06;20.60;72.31
69823;SHT31;57119;52.516;13.508;2023-08-31T14:29:31;20.22;73.97
69823;SHT31;57119;52.516;13.508;2023-08-31T14:31:57;20.46;72.76
69823;SHT31;57119;52.516;13.508;2023-08-31T14:34:22;20.34;73.59
69823;SHT31;57119;52.516;13.508;2023-08-31T14:36:50;19.46;75.11
69823;SHT31;57119;52.516;13.508;2023-08-31T14:39:15;19.12;75.75
69823;SHT31;57119;52.516;13.508;2023-08-31T14:41:41;18.37;77.17
69823;SHT31;57119;52.516;13.508;2023-08-31T14:44:06;17.91;77.12
69823;SHT31;57119;52.516;13.508;2023-08-31T14:46:32;17.82;76.93
69823;SHT31;57119;52.516;13.508;2023-08-31T14:48:57;17.69;76.76
69823;SHT31;57119;52.516;13.508;2023-08-31T14:51:23;17.32;77.98
69823;SHT31;57119;52.516;13.508;2023-08-31T14:53:48;17.46;77.93
69823;SHT31;57119;52.516;13.508;2023-08-31T14:56:13;17.93;77.87
69823;SHT31;57119;52.516;13.508;2023-08-31T14:58:39;18.41;76.60
69823;SHT31;57119;52.516;13.508;2023-08-31T15:01:05;18.56;76.50
69823;SHT31;57119;52.516;13.508;2023-08-31T15:03:30;18.15;75.42
69823;SHT31;57119;52.516;13.508;2023-08-31T15:05:55;17.69;78.63
69823;SHT31;57119;52.516;13.508;2023-08-31T15:08:34;17.36;79.67
69823;SHT31;57119;52.516;13.508;2023-08-31T15:11:00;17.29;79.62
69823;SHT31;57119;52.516;13.508;2023-08-31T15:13:26;17.18;80.99
69823;SHT31;57119;52.516;13.508;2023-08-31T15:15:51;17.10;81.53
69823;SHT31;57119;52.516;13.508;2023-08-31T15:18:17;17.10;82.02
69823;SHT31;57119;52.516;13.508;2023-08-31T15:20:42;17.19;82.15
69823;SHT31;57119;52.516;13.508;2023-08-31T15:23:08;17.82;80.00
69823;SHT31;57119;52.516;13.508;2023-08-31T15:25:33;18.83;77.69
69823;SHT31;57119;52.516;13.508;2023-08-31T15:27:58;19.86;74.77
69823;SHT31;57119;52.516;13.508;2023-08-31T15:30:24;20.91;72.31
69823;SHT31;57119;52.516;13.508;2023-08-31T15:32:49;20.46;71.84
69823;SHT31;57119;52.516;13.508;2023-08-31T15:35:15;20.02;73.31
69823;SHT31;57119;52.516;13.508;2023-08-31T15:37:41;19.26;75.34